Info: AKSES SELALU MELALUI WEBSITE RESMI KAMI POKER88.CITY, POKER88.IO, PLAY88.FUN TELAH HADIR BANK MEGA UNTUK PECINTA POKER88 - BCA BNI BRI MANDIRI MAYBANK MEGA PERMATA CIMBNIAGA PANIN ONLINE - NIKMATI SERUNYA BERMAIN GAME TERBARU POKERBID DENGAN MENGUMPULKAN 5 KARTU!! - HARAP PERHATIKAN MENU DEPOSIT SEBELUM MELAKUKAN TRANSFER
REGISTER JACKPOT DEPOSIT REFERRAL DOWNLOAD PROMOSI HUBUNGI KAMI VIP
showpass

DAFTAR

JACKPOT



   

Jackpot Winner Ceme

Jackpot hanya dapat di beli di awal sebelum periode tersebut berjalan dan jika berhasil maka anda dapat melihat di sisi kiri bawah atau kiri atas akan terdapat notifikasi bahwa jackpot anda berhasil di beli.

Jika anda membeli jackpot di tengah permainan maka pembelian jackpot akan berlaku untuk periode selanjutnya.

Jackpot dilihat dari gabungan kartu pemain dengan kartu bandar. Bandar harus membeli jackpot sebanyak jumlah player yang sedang duduk. Sebagai contoh bila terdapat 3 pemain duduk bermain, dan bandar memutuskan untuk membeli jackpot Rp 1.000, maka pada periode tersebut bandar akan membeli jackpot sebanyak 3xRp1.000 = Rp3.000.

Jackpot bukanlah suatu keharusan untuk dibeli, namun kami memberikan suatu fitur tambahan untuk member tercinta dari www.asiapk88.net.

Terdapat tiga pilihan harga jackpot yang bisa anda beli yaitu :100,500 dan 1000 rupiah.

Hadiah dari Multi jackpot system www.asiapk88.net

  1. Murni Kecil x 50 harga jackpot yang anda beli.
      (contoH:anda membeli 1000 maka:1000 X 50 = 50.000)
  2. Murni Besar x 50 harga jackpot yang anda beli
      (contoH:anda membeli 1000 maka:1000 X 50 = 50.000)
  3. BALAK x 200 harga jackpot yang anda beli
      (contoH:anda membeli 1000 maka:1000 X 200 = 200.000)
  4. ENAM DEWA x 6666 harga jackpot yang anda beli
      (contoH:anda membeli 1000 maka:1000 X 6666 = 6.666.000)

Demikian adalah penjelasan dari Multi Jackpot www.asiapk88.net terima kasih dan selamat bermain salam hoki dari kami


Jackpot Winner

TOP ENAM DEWA
No. Tanggal Nama Price Win
1 10/12 10:56 BO0*** murni enam 6,666,000
2 10/12 10:52 D99JEHANNE1*** murni enam 6,666,000
3 10/12 10:39 IBNU88*** murni enam 6,666,000
4 10/12 10:37 DAPAK*** murni enam 6,666,000
5 10/12 10:37 HOKY*** murni enam 6,666,000
TOP BALAK
No. Tanggal Nama Price Win
1 10/12 11:12 CHIKA*** balak 20,000
2 10/12 11:12 MIKHA*** balak 200,000
3 10/12 11:12 METR*** balak 200,000
4 10/12 11:12 JAME*** balak 100,000
5 10/12 11:11 JP1*** balak 100,000
LATEST JACKPOT
No. Tanggal Nama Price Win
1 10/12 11:12 JAMES*** murni besar 25,000
2 10/12 11:12 CHIKA*** balak 20,000
3 10/12 11:12 CANTI*** murni kecil 50,000
4 10/12 11:12 AIWA*** murni kecil 5,000
5 10/12 11:12 GONGS*** murni besar 50,000
6 10/12 11:12 MU*** murni besar 50,000
7 10/12 11:12 WAHYUMU*** murni kecil 50,000
8 10/12 11:12 WAHYUMU*** murni kecil 50,000
9 10/12 11:12 MIKHA*** balak 200,000
10 10/12 11:12 METR*** balak 200,000
11 10/12 11:12 AGIL9*** murni kecil 50,000
12 10/12 11:12 MANGGAL*** murni besar 50,000
13 10/12 11:12 D20IKRAR14*** murni besar 50,000
14 10/12 11:12 F9HA978*** murni kecil 25,000
15 10/12 11:12 HERLIAN*** murni kecil 50,000
16 10/12 11:12 DAMA*** murni kecil 25,000
17 10/12 11:12 JAME*** balak 100,000
18 10/12 11:11 JP1*** balak 100,000
19 10/12 11:11 NOVA*** murni kecil 25,000
20 10/12 11:11 NUNU*** murni kecil 25,000
21 10/12 11:11 KENAC*** murni besar 5,000
22 10/12 11:11 MULU*** murni kecil 50,000
23 10/12 11:11 SULIN*** murni kecil 5,000
24 10/12 11:11 KANSAM*** murni kecil 25,000
25 10/12 11:11 DUDU*** murni kecil 50,000
26 10/12 11:11 HMDIK*** murni kecil 25,000
27 10/12 11:11 WEDEK*** murni kecil 5,000
28 10/12 11:11 CR0W*** murni besar 50,000
29 10/12 11:11 F9HA978*** murni kecil 25,000
30 10/12 11:11 SUSAN_*** murni kecil 5,000
31 10/12 11:10 U9L98ZH*** balak 200,000
32 10/12 11:10 PASS*** murni kecil 50,000
33 10/12 11:10 D99JEHANNE1*** murni kecil 50,000
34 10/12 11:10 RIDHOIB*** balak 200,000
35 10/12 11:10 M*** murni kecil 50,000
36 10/12 11:10 TOKOKU*** murni kecil 25,000
37 10/12 11:10 RUSU*** murni besar 50,000
38 10/12 11:10 BASAHHH*** murni besar 5,000
39 10/12 11:10 UTARA*** balak 200,000
40 10/12 11:10 KHAI2*** balak 200,000
41 10/12 11:10 BEAT062*** murni besar 25,000
42 10/12 11:10 HAY*** balak 200,000
43 10/12 11:10 OM_L*** murni besar 5,000
44 10/12 11:10 ANEP*** murni besar 25,000
45 10/12 11:10 ASNA*** murni kecil 50,000
46 10/12 11:10 R_UY*** murni kecil 25,000
47 10/12 11:09 BOS_*** murni kecil 5,000
48 10/12 11:09 NUR*** murni besar 25,000
49 10/12 11:09 TEMPU*** murni besar 50,000
50 10/12 11:09 BOSEXPE*** murni kecil 50,000